Cotton Gin, Texas
Current Conditions -  °F | °C
As of 12:35 AM on Thursday 27 Nov 2014 (Local Time) from KLXY Reporting Station
Clear Clear  
Wind Chill: 45°   Ceiling: Unl
Heat Index: 49°   Visibility: 10mi
Dew Point: 36°   Wind: 8mph
Humidity: 61%   Direction: 360°N
Pressure: 30.38"   Gusts: NA
Location:  31.6463°N, 96.2786°W
Report Text: KLXY 270635Z AUTO 36007KT 10SM CLR 09/02 A3038 RMK AO2 T00920020
Loading
Personal Weather Stations






























Interactive Weather Map New forecast layout! Learn more

10-Day Weather Forecast

Advertisements
Track Severe Weather on mobile